Terminal Aerodrome Forecast
Issued by NWS Sterling, VA

Current Version | Previous Version | Graphics & Text | Print | Product List | Glossary On
Versions: 1 2 3 4 5 6 7 8 9 10 11 12 13 14 15 16 17 18 19 20 21 22 23 24
083
FTUS41 KLWX 301730
TAFDCA
TAF
KDCA 301730Z 3018/3118 17007KT P6SM BKN035
     FM302100 16008KT P6SM SHRA VCTS BKN035CB
     FM310000 15006KT 6SM SHRA BR VCTS OVC060CB
     FM310300 15005KT P6SM SHRA VCTS OVC060CB
     FM310600 16004KT P6SM BKN070
     FM311400 28004KT P6SM BKN200=

USA.gov is the U.S. government's official web portal to all federal, state and local government web resources and services.